Аэропорт: Одесса. Одесса

ICAO: UKOO

METAR:
2022-01-28 08:00:00
UKOO 280800Z 23003MPS CAVOK 00/M02 Q1012 NOSIG
METAR:
2022-01-28 05:07:00
TAF UKOO 280507Z 2806/2906 24006G12MPS 6000 SCT004 BKN007 SCT015CB TX03/2813Z TNM03/2903Z TEMPO 2812/2818 2500 -SHSNRA BR BECMG 2818/2820 28007G14MPS 2500 BR